地図

経路データ

SID SEASON NUMBER BASIN SUBBASIN NAME ISO_TIME NATURE LAT LON WMO_WIND WMO_PRES WMO_AGENCY TRACK_TYPE DIST2LAND LANDFALL IFLAG USA_AGENCY USA_ATCF_ID USA_LAT USA_LON USA_RECORD USA_STATUS USA_WIND USA_PRES USA_SSHS USA_R34_NE USA_R34_SE USA_R34_SW USA_R34_NW USA_R50_NE USA_R50_SE USA_R50_SW USA_R50_NW USA_R64_NE USA_R64_SE USA_R64_SW USA_R64_NW USA_POCI USA_ROCI USA_RMW USA_EYE TOKYO_LAT TOKYO_LON TOKYO_GRADE TOKYO_WIND TOKYO_PRES TOKYO_R50_DIR TOKYO_R50_LONG TOKYO_R50_SHORT TOKYO_R30_DIR TOKYO_R30_LONG TOKYO_R30_SHORT TOKYO_LAND CMA_LAT CMA_LON CMA_CAT CMA_WIND CMA_PRES HKO_LAT HKO_LON HKO_CAT HKO_WIND HKO_PRES NEWDELHI_LAT NEWDELHI_LON NEWDELHI_GRADE NEWDELHI_WIND NEWDELHI_PRES NEWDELHI_CI NEWDELHI_DP NEWDELHI_POCI REUNION_LAT REUNION_LON REUNION_TYPE REUNION_WIND REUNION_PRES REUNION_TNUM REUNION_CI REUNION_RMW REUNION_R34_NE REUNION_R34_SE REUNION_R34_SW REUNION_R34_NW REUNION_R50_NE REUNION_R50_SE REUNION_R50_SW REUNION_R50_NW REUNION_R64_NE REUNION_R64_SE REUNION_R64_SW REUNION_R64_NW BOM_LAT BOM_LON BOM_TYPE BOM_WIND BOM_PRES BOM_TNUM BOM_CI BOM_RMW BOM_R34_NE BOM_R34_SE BOM_R34_SW BOM_R34_NW BOM_R50_NE BOM_R50_SE BOM_R50_SW BOM_R50_NW BOM_R64_NE BOM_R64_SE BOM_R64_SW BOM_R64_NW BOM_ROCI BOM_POCI BOM_EYE BOM_POS_METHOD BOM_PRES_METHOD NADI_LAT NADI_LON NADI_CAT NADI_WIND NADI_PRES WELLINGTON_LAT WELLINGTON_LON WELLINGTON_WIND WELLINGTON_PRES DS824_LAT DS824_LON DS824_STAGE DS824_WIND DS824_PRES TD9636_LAT TD9636_LON TD9636_STAGE TD9636_WIND TD9636_PRES TD9635_LAT TD9635_LON TD9635_WIND TD9635_PRES TD9635_ROCI NEUMANN_LAT NEUMANN_LON NEUMANN_CLASS NEUMANN_WIND NEUMANN_PRES MLC_LAT MLC_LON MLC_CLASS MLC_WIND MLC_PRES USA_GUST BOM_GUST BOM_GUST_PER REUNION_GUST REUNION_GUST_PER USA_SEAHGT USA_SEARAD_NE USA_SEARAD_SE USA_SEARAD_SW USA_SEARAD_NW STORM_SPEED STORM_DIR
2018268N24155 2018 89 WP MM NOT_NAMED 2018-09-25 06:00:00 NR 23.8000 155.000 main 1895 1782 O_____________ jtwc_wp WP292018 23.8000 155.000 DB 20 1006 -3 1008 120 45 21 321
2018268N24155 2018 89 WP MM NOT_NAMED 2018-09-25 09:00:00 NR 24.6056 154.295 main 1782 1677 P_____________ WP292018 24.6056 154.295 DB 20 1006 -3 1008 120 45 20 320
2018268N24155 2018 89 WP MM NOT_NAMED 2018-09-25 12:00:00 NR 25.3000 153.600 main 1677 1595 O_____________ jtwc_wp WP292018 25.3000 153.600 DB 20 1006 -3 1008 120 45 17 315
2018268N24155 2018 89 WP MM NOT_NAMED 2018-09-25 15:00:00 NR 25.8224 152.947 main 1588 1513 P_____________ WP292018 25.8224 152.947 DB 20 1006 -3 1008 120 37 15 313
2018268N24155 2018 89 WP MM NOT_NAMED 2018-09-25 18:00:00 NR 26.3000 152.400 main 1513 1437 O_____________ jtwc_wp WP292018 26.3000 152.400 DB 20 1006 -3 1008 120 30 14 321
2018268N24155 2018 89 WP MM NOT_NAMED 2018-09-25 21:00:00 NR 26.8847 151.997 main 1437 1369 P_____________ WP292018 26.8847 151.997 DB 22 1005 -3 1008 120 30 14 333
2018268N24155 2018 89 WP MM NOT_NAMED 2018-09-26 00:00:00 TS 27.5000 151.700 main 1369 1309 O_____________ jtwc_wp WP292018 27.5000 151.700 TD 25 1005 -1 1008 120 30 13 336
2018268N24155 2018 89 WP MM NOT_NAMED 2018-09-26 03:00:00 TS 28.0775 151.398 main 1301 1241 P_____________ WP292018 28.0775 151.398 TD 25 1004 -1 1008 120 30 13 340
2018268N24155 2018 89 WP MM NOT_NAMED 2018-09-26 06:00:00 TS 28.7000 151.200 main 1241 1183 O_____________ jtwc_wp WP292018 28.7000 151.200 TD 25 1004 -1 1008 120 30 35 14 351
2018268N24155 2018 89 WP MM NOT_NAMED 2018-09-26 09:00:00 TS 29.4124 151.147 main 1183 1137 P_____________ WP292018 29.4124 151.147 TD 27 1003 -1 1009 130 30 15 0
2018268N24155 2018 89 WP MM NOT_NAMED 2018-09-26 12:00:00 TS 30.2000 151.200 main 1137 1088 O_____________ jtwc_wp WP292018 30.2000 151.200 TD 30 1002 -1 1010 140 30 17 3
2018268N24155 2018 89 WP MM NOT_NAMED 2018-09-26 15:00:00 TS 31.0874 151.255 main 1090 1056 P_____________ WP292018 31.0874 151.255 TD 30 1001 -1 1009 130 35 17 6
2018268N24155 2018 89 WP MM NOT_NAMED 2018-09-26 18:00:00 TS 31.9000 151.400 main 1056 1049 O_____________ jtwc_wp WP292018 31.9000 151.400 TD 30 1001 -1 1009 120 40 14 15
2018268N24155 2018 89 WP MM NOT_NAMED 2018-09-26 21:00:00 TS 32.4000 151.663 main 1058 1053 P_____________ WP292018 32.4000 151.663 TD 27 1002 -1 1009 125 55 11 27
2018268N24155 2018 89 WP MM NOT_NAMED 2018-09-27 00:00:00 TS 32.9000 152.000 main 1063 1057 O_____________ jtwc_wp WP292018 32.9000 152.000 TD 25 1004 -1 1010 130 70 14 23
2018268N24155 2018 89 WP MM NOT_NAMED 2018-09-27 03:00:00 TS 33.6971 152.306 main 1062 1059 P_____________ WP292018 33.6971 152.306 TD 25 1004 -1 1010 147 70 18 19
2018268N24155 2018 89 WP MM NOT_NAMED 2018-09-27 06:00:00 TS 34.6000 152.700 main 1076 1069 O_____________ jtwc_wp WP292018 34.6000 152.700 TD 25 1004 -1 1010 165 70 19 23
2018268N24155 2018 89 WP MM NOT_NAMED 2018-09-27 09:00:00 TS 35.4641 153.204 main 1072 1048 P_____________ WP292018 35.4641 153.204 TD 25 1004 -1 1010 165 70 20 30
2018268N24155 2018 89 WP MM NOT_NAMED 2018-09-27 12:00:00 ET 36.3000 153.900 main 1048 1035 O_____________ jtwc_wp WP292018 36.3000 153.900 EX 25 1004 -4 1010 165 70 21 39
2018268N24155 2018 89 WP MM NOT_NAMED 2018-09-27 15:00:00 ET 37.0725 154.828 main 1035 1003 P_____________ WP292018 37.0725 154.828 EX 25 1004 -4 1010 165 70 22 47
2018268N24155 2018 89 WP MM NOT_NAMED 2018-09-27 18:00:00 ET 37.8000 155.900 main 1007 O_____________ jtwc_wp WP292018 37.8000 155.900 EX 25 1004 -4 1010 165 70 22 49

デジタル台風データ・検索

IBTrACS Databaseについて

本データベースは、米国NOAAが公開する1842年以降の世界の熱帯低気圧のベストトラックデータアーカイブInternational Best Track Archive for Climate Stewardship (IBTrACS)を、ウェブで閲覧しやすい形式に変換したものです。

最終更新日:2021-12-06